sensor_id;sensor_type;location;lat;lon;timestamp;P1;durP1;ratioP1;P2;durP2;ratioP2
32329;SDS011;18807;52.434;13.238;2022-10-16T00:04:59;2.17;;;1.98;;
32329;SDS011;18807;52.434;13.238;2022-10-16T00:12:34;1.95;;;1.80;;
32329;SDS011;18807;52.434;13.238;2022-10-16T00:27:43;2.95;;;2.55;;
32329;SDS011;18807;52.434;13.238;2022-10-16T00:35:17;2.33;;;2.10;;
32329;SDS011;18807;52.434;13.238;2022-10-16T00:42:52;2.70;;;2.33;;
32329;SDS011;18807;52.434;13.238;2022-10-16T00:58:03;2.17;;;1.73;;
32329;SDS011;18807;52.434;13.238;2022-10-16T01:05:38;2.83;;;2.20;;
32329;SDS011;18807;52.434;13.238;2022-10-16T01:13:20;2.15;;;1.85;;
32329;SDS011;18807;52.434;13.238;2022-10-16T01:20:59;3.00;;;2.17;;
32329;SDS011;18807;52.434;13.238;2022-10-16T01:28:38;3.13;;;2.00;;
32329;SDS011;18807;52.434;13.238;2022-10-16T01:36:15;3.55;;;1.65;;
32329;SDS011;18807;52.434;13.238;2022-10-16T01:43:56;3.47;;;2.10;;
32329;SDS011;18807;52.434;13.238;2022-10-16T01:51:35;1.98;;;1.63;;
32329;SDS011;18807;52.434;13.238;2022-10-16T01:59:13;2.47;;;1.73;;
32329;SDS011;18807;52.434;13.238;2022-10-16T02:06:50;1.65;;;1.50;;
32329;SDS011;18807;52.434;13.238;2022-10-16T02:14:25;1.85;;;1.70;;
32329;SDS011;18807;52.434;13.238;2022-10-16T02:22:00;2.97;;;1.70;;
32329;SDS011;18807;52.434;13.238;2022-10-16T02:29:40;1.90;;;1.65;;
32329;SDS011;18807;52.434;13.238;2022-10-16T02:37:22;1.90;;;1.70;;
32329;SDS011;18807;52.434;13.238;2022-10-16T02:44:57;2.55;;;1.88;;
32329;SDS011;18807;52.434;13.238;2022-10-16T02:52:31;2.25;;;1.58;;
32329;SDS011;18807;52.434;13.238;2022-10-16T03:00:08;2.23;;;1.70;;
32329;SDS011;18807;52.434;13.238;2022-10-16T03:07:44;1.70;;;1.60;;
32329;SDS011;18807;52.434;13.238;2022-10-16T03:15:20;2.30;;;1.50;;
32329;SDS011;18807;52.434;13.238;2022-10-16T03:30:28;2.00;;;1.80;;
32329;SDS011;18807;52.434;13.238;2022-10-16T03:38:02;2.67;;;1.65;;
32329;SDS011;18807;52.434;13.238;2022-10-16T03:45:37;1.92;;;1.60;;
32329;SDS011;18807;52.434;13.238;2022-10-16T03:53:12;2.15;;;1.80;;
32329;SDS011;18807;52.434;13.238;2022-10-16T04:00:47;2.22;;;1.70;;
32329;SDS011;18807;52.434;13.238;2022-10-16T04:08:21;1.80;;;1.70;;
32329;SDS011;18807;52.434;13.238;2022-10-16T04:15:56;2.28;;;1.77;;
32329;SDS011;18807;52.434;13.238;2022-10-16T04:23:30;1.75;;;1.65;;
32329;SDS011;18807;52.434;13.238;2022-10-16T04:31:06;3.67;;;1.90;;
32329;SDS011;18807;52.434;13.238;2022-10-16T04:38:40;2.22;;;1.90;;
32329;SDS011;18807;52.434;13.238;2022-10-16T04:46:15;2.30;;;1.60;;
32329;SDS011;18807;52.434;13.238;2022-10-16T04:53:49;1.60;;;1.50;;
32329;SDS011;18807;52.434;13.238;2022-10-16T05:01:25;2.03;;;1.63;;
32329;SDS011;18807;52.434;13.238;2022-10-16T05:16:34;4.43;;;2.00;;
32329;SDS011;18807;52.434;13.238;2022-10-16T05:31:42;2.33;;;1.73;;
32329;SDS011;18807;52.434;13.238;2022-10-16T05:39:16;2.08;;;1.88;;
32329;SDS011;18807;52.434;13.238;2022-10-16T05:46:51;3.33;;;1.90;;
32329;SDS011;18807;52.434;13.238;2022-10-16T06:02:00;2.25;;;1.90;;
32329;SDS011;18807;52.434;13.238;2022-10-16T06:17:08;2.22;;;1.85;;
32329;SDS011;18807;52.434;13.238;2022-10-16T06:24:42;2.25;;;1.98;;
32329;SDS011;18807;52.434;13.238;2022-10-16T06:32:17;3.20;;;2.40;;
32329;SDS011;18807;52.434;13.238;2022-10-16T06:47:26;2.22;;;1.95;;
32329;SDS011;18807;52.434;13.238;2022-10-16T06:55:00;2.75;;;2.15;;
32329;SDS011;18807;52.434;13.238;2022-10-16T07:02:36;2.60;;;2.37;;
32329;SDS011;18807;52.434;13.238;2022-10-16T07:10:10;2.70;;;2.30;;
32329;SDS011;18807;52.434;13.238;2022-10-16T07:17:45;2.28;;;2.08;;
32329;SDS011;18807;52.434;13.238;2022-10-16T07:32:53;2.70;;;2.40;;
32329;SDS011;18807;52.434;13.238;2022-10-16T07:48:02;2.38;;;2.05;;
32329;SDS011;18807;52.434;13.238;2022-10-16T07:55:36;2.08;;;1.88;;
32329;SDS011;18807;52.434;13.238;2022-10-16T08:03:11;2.23;;;1.87;;
32329;SDS011;18807;52.434;13.238;2022-10-16T08:18:20;1.92;;;1.60;;
32329;SDS011;18807;52.434;13.238;2022-10-16T08:25:54;2.97;;;1.80;;
32329;SDS011;18807;52.434;13.238;2022-10-16T08:33:31;1.98;;;1.83;;
32329;SDS011;18807;52.434;13.238;2022-10-16T08:41:16;1.45;;;1.35;;
32329;SDS011;18807;52.434;13.238;2022-10-16T08:48:58;1.77;;;1.65;;
32329;SDS011;18807;52.434;13.238;2022-10-16T08:56:33;2.00;;;1.80;;
32329;SDS011;18807;52.434;13.238;2022-10-16T09:04:18;2.60;;;1.83;;
32329;SDS011;18807;52.434;13.238;2022-10-16T09:12:17;2.58;;;1.30;;
32329;SDS011;18807;52.434;13.238;2022-10-16T09:20:03;1.55;;;1.45;;
32329;SDS011;18807;52.434;13.238;2022-10-16T09:27:56;1.33;;;1.23;;
32329;SDS011;18807;52.434;13.238;2022-10-16T09:35:33;2.42;;;1.50;;
32329;SDS011;18807;52.434;13.238;2022-10-16T09:43:19;1.88;;;1.48;;
32329;SDS011;18807;52.434;13.238;2022-10-16T09:50:58;1.40;;;1.30;;
32329;SDS011;18807;52.434;13.238;2022-10-16T09:58:34;1.75;;;0.80;;
32329;SDS011;18807;52.434;13.238;2022-10-16T10:06:16;2.55;;;1.05;;
32329;SDS011;18807;52.434;13.238;2022-10-16T10:14:02;1.10;;;1.00;;
32329;SDS011;18807;52.434;13.238;2022-10-16T10:21:39;1.23;;;0.90;;
32329;SDS011;18807;52.434;13.238;2022-10-16T10:29:14;0.98;;;0.70;;
32329;SDS011;18807;52.434;13.238;2022-10-16T10:37:04;1.05;;;0.90;;
32329;SDS011;18807;52.434;13.238;2022-10-16T10:45:03;1.10;;;0.88;;
32329;SDS011;18807;52.434;13.238;2022-10-16T10:52:56;1.48;;;0.90;;
32329;SDS011;18807;52.434;13.238;2022-10-16T11:00:35;3.92;;;0.80;;
32329;SDS011;18807;52.434;13.238;2022-10-16T11:08:21;0.90;;;0.80;;
32329;SDS011;18807;52.434;13.238;2022-10-16T11:16:03;2.40;;;0.82;;
32329;SDS011;18807;52.434;13.238;2022-10-16T11:23:50;0.70;;;0.70;;
32329;SDS011;18807;52.434;13.238;2022-10-16T11:31:29;0.70;;;0.70;;
32329;SDS011;18807;52.434;13.238;2022-10-16T11:39:16;1.80;;;0.70;;
32329;SDS011;18807;52.434;13.238;2022-10-16T11:46:57;1.83;;;0.70;;
32329;SDS011;18807;52.434;13.238;2022-10-16T11:54:57;2.67;;;0.68;;
32329;SDS011;18807;52.434;13.238;2022-10-16T12:02:38;0.82;;;0.70;;
32329;SDS011;18807;52.434;13.238;2022-10-16T12:10:22;0.55;;;0.50;;
32329;SDS011;18807;52.434;13.238;2022-10-16T12:17:59;2.92;;;0.60;;
32329;SDS011;18807;52.434;13.238;2022-10-16T12:25:35;0.80;;;0.68;;
32329;SDS011;18807;52.434;13.238;2022-10-16T12:33:19;1.02;;;0.50;;
32329;SDS011;18807;52.434;13.238;2022-10-16T12:40:59;2.72;;;0.60;;
32329;SDS011;18807;52.434;13.238;2022-10-16T12:48:36;1.25;;;0.70;;
32329;SDS011;18807;52.434;13.238;2022-10-16T12:56:36;1.60;;;0.40;;
32329;SDS011;18807;52.434;13.238;2022-10-16T13:12:29;0.40;;;0.40;;
32329;SDS011;18807;52.434;13.238;2022-10-16T13:20:16;2.33;;;0.60;;
32329;SDS011;18807;52.434;13.238;2022-10-16T13:27:59;0.60;;;0.60;;
32329;SDS011;18807;52.434;13.238;2022-10-16T13:35:34;0.75;;;0.43;;
32329;SDS011;18807;52.434;13.238;2022-10-16T13:43:10;2.43;;;0.63;;
32329;SDS011;18807;52.434;13.238;2022-10-16T13:50:44;0.77;;;0.55;;
32329;SDS011;18807;52.434;13.238;2022-10-16T13:58:19;0.80;;;0.80;;
32329;SDS011;18807;52.434;13.238;2022-10-16T14:21:11;0.98;;;0.60;;
32329;SDS011;18807;52.434;13.238;2022-10-16T14:29:00;0.88;;;0.68;;
32329;SDS011;18807;52.434;13.238;2022-10-16T14:36:36;0.50;;;0.50;;
32329;SDS011;18807;52.434;13.238;2022-10-16T14:44:16;1.77;;;0.70;;
32329;SDS011;18807;52.434;13.238;2022-10-16T14:51:51;0.98;;;0.40;;
32329;SDS011;18807;52.434;13.238;2022-10-16T14:59:27;1.73;;;0.52;;
32329;SDS011;18807;52.434;13.238;2022-10-16T15:07:03;0.55;;;0.50;;
32329;SDS011;18807;52.434;13.238;2022-10-16T15:14:38;0.60;;;0.60;;
32329;SDS011;18807;52.434;13.238;2022-10-16T15:29:47;0.30;;;0.30;;
32329;SDS011;18807;52.434;13.238;2022-10-16T15:37:21;1.10;;;0.57;;
32329;SDS011;18807;52.434;13.238;2022-10-16T15:44:56;4.07;;;1.38;;
32329;SDS011;18807;52.434;13.238;2022-10-16T16:00:06;2.22;;;0.80;;
32329;SDS011;18807;52.434;13.238;2022-10-16T16:07:42;4.65;;;2.42;;
32329;SDS011;18807;52.434;13.238;2022-10-16T16:15:17;1.50;;;0.90;;
32329;SDS011;18807;52.434;13.238;2022-10-16T16:22:51;1.40;;;1.10;;
32329;SDS011;18807;52.434;13.238;2022-10-16T16:30:26;3.67;;;0.85;;
32329;SDS011;18807;52.434;13.238;2022-10-16T16:38:00;2.35;;;1.50;;
32329;SDS011;18807;52.434;13.238;2022-10-16T16:45:36;3.55;;;1.75;;
32329;SDS011;18807;52.434;13.238;2022-10-16T16:53:09;1.92;;;1.40;;
32329;SDS011;18807;52.434;13.238;2022-10-16T17:00:46;2.80;;;1.65;;
32329;SDS011;18807;52.434;13.238;2022-10-16T17:08:28;3.77;;;2.20;;
32329;SDS011;18807;52.434;13.238;2022-10-16T17:16:05;4.18;;;2.58;;
32329;SDS011;18807;52.434;13.238;2022-10-16T17:23:39;3.22;;;2.38;;
32329;SDS011;18807;52.434;13.238;2022-10-16T17:31:15;3.65;;;2.50;;
32329;SDS011;18807;52.434;13.238;2022-10-16T17:38:51;4.20;;;2.72;;
32329;SDS011;18807;52.434;13.238;2022-10-16T17:46:26;3.95;;;3.05;;
32329;SDS011;18807;52.434;13.238;2022-10-16T17:54:00;5.18;;;3.47;;
32329;SDS011;18807;52.434;13.238;2022-10-16T18:01:37;5.65;;;4.47;;
32329;SDS011;18807;52.434;13.238;2022-10-16T18:09:13;5.80;;;4.43;;
32329;SDS011;18807;52.434;13.238;2022-10-16T18:16:51;5.30;;;4.63;;
32329;SDS011;18807;52.434;13.238;2022-10-16T18:32:00;10.15;;;7.28;;
32329;SDS011;18807;52.434;13.238;2022-10-16T18:47:09;14.68;;;10.38;;
32329;SDS011;18807;52.434;13.238;2022-10-16T18:54:43;15.05;;;10.20;;
32329;SDS011;18807;52.434;13.238;2022-10-16T19:02:18;13.23;;;11.05;;
32329;SDS011;18807;52.434;13.238;2022-10-16T19:09:51;10.02;;;8.75;;
32329;SDS011;18807;52.434;13.238;2022-10-16T19:17:27;11.17;;;8.53;;
32329;SDS011;18807;52.434;13.238;2022-10-16T19:25:02;11.55;;;8.35;;
32329;SDS011;18807;52.434;13.238;2022-10-16T19:32:37;9.85;;;7.90;;
32329;SDS011;18807;52.434;13.238;2022-10-16T19:40:11;12.48;;;8.80;;
32329;SDS011;18807;52.434;13.238;2022-10-16T19:47:46;10.98;;;8.80;;
32329;SDS011;18807;52.434;13.238;2022-10-16T19:55:20;13.15;;;9.82;;
32329;SDS011;18807;52.434;13.238;2022-10-16T20:02:55;14.60;;;10.70;;
32329;SDS011;18807;52.434;13.238;2022-10-16T20:10:29;16.05;;;11.38;;
32329;SDS011;18807;52.434;13.238;2022-10-16T20:18:05;15.98;;;12.10;;
32329;SDS011;18807;52.434;13.238;2022-10-16T20:25:39;15.82;;;10.55;;
32329;SDS011;18807;52.434;13.238;2022-10-16T20:33:16;14.40;;;10.88;;
32329;SDS011;18807;52.434;13.238;2022-10-16T20:40:50;15.82;;;11.43;;
32329;SDS011;18807;52.434;13.238;2022-10-16T20:48:25;15.85;;;11.70;;
32329;SDS011;18807;52.434;13.238;2022-10-16T20:55:59;17.63;;;11.45;;
32329;SDS011;18807;52.434;13.238;2022-10-16T21:03:35;18.40;;;11.43;;
32329;SDS011;18807;52.434;13.238;2022-10-16T21:11:10;15.48;;;11.13;;
32329;SDS011;18807;52.434;13.238;2022-10-16T21:18:46;17.42;;;10.73;;
32329;SDS011;18807;52.434;13.238;2022-10-16T21:26:21;18.83;;;11.50;;
32329;SDS011;18807;52.434;13.238;2022-10-16T21:33:59;16.88;;;11.30;;
32329;SDS011;18807;52.434;13.238;2022-10-16T21:41:33;14.65;;;11.27;;
32329;SDS011;18807;52.434;13.238;2022-10-16T21:49:10;14.27;;;11.05;;
32329;SDS011;18807;52.434;13.238;2022-10-16T21:56:45;17.10;;;12.23;;
32329;SDS011;18807;52.434;13.238;2022-10-16T22:04:21;18.97;;;11.53;;
32329;SDS011;18807;52.434;13.238;2022-10-16T22:19:30;15.80;;;10.88;;
32329;SDS011;18807;52.434;13.238;2022-10-16T22:27:03;12.10;;;9.10;;
32329;SDS011;18807;52.434;13.238;2022-10-16T22:34:38;11.23;;;8.93;;
32329;SDS011;18807;52.434;13.238;2022-10-16T22:42:12;16.50;;;10.95;;
32329;SDS011;18807;52.434;13.238;2022-10-16T22:49:47;15.95;;;10.90;;
32329;SDS011;18807;52.434;13.238;2022-10-16T22:57:21;17.55;;;10.70;;
32329;SDS011;18807;52.434;13.238;2022-10-16T23:04:56;12.77;;;9.43;;
32329;SDS011;18807;52.434;13.238;2022-10-16T23:12:30;17.38;;;10.30;;
32329;SDS011;18807;52.434;13.238;2022-10-16T23:20:06;13.70;;;10.47;;
32329;SDS011;18807;52.434;13.238;2022-10-16T23:27:40;15.95;;;10.95;;
32329;SDS011;18807;52.434;13.238;2022-10-16T23:35:15;15.32;;;11.07;;
32329;SDS011;18807;52.434;13.238;2022-10-16T23:50:26;14.85;;;11.38;;
32329;SDS011;18807;52.434;13.238;2022-10-16T23:58:01;14.80;;;9.77;;
